Farnam, NE (69029)

5:49 AM CDT on July 23, 2016 (GMT -0500)
KNEGOTHE4 | | Change Station
Active Advisory: Excessive Heat Warning

Elev 2572 ft 40.92 °N, 100.17 °W | Updated 3 minutes ago

Light Rain
Light Rain
69.8 °F
Feels Like 69.8 °F
N
2.0
Wind Variable Wind from SSE
Gusts 2.0 mph

Today
High -- | Low -- °F
--% Chance of Precip.
Yesterday
High -- | Low -- °F
Precip. -- in
Pressure 29.90 in
Visibility 10.0 miles
Clouds Clear
Dew Point 66 °F
Humidity 88%
Rainfall 0.20 in
Snow Depth Not available.
6:29 AM 9:04 PM
Waning Gibbous, 86% visible
METAR KLXN 231035Z AUTO 16004KT 10SM -RA CLR 22/19 A2990 RMK AO2 LTG DSNT SE P0001 T02180192
Pressure 29.90 in
Visibility 10.0 miles
Clouds Clear
Dew Point 66 °F
Humidity 88%
Rainfall 0.20 in
Snow Depth Not available.
6:29 AM 9:04 PM
Waning Gibbous, 86% visible
METAR KLXN 231035Z AUTO 16004KT 10SM -RA CLR 22/19 A2990 RMK AO2 LTG DSNT SE P0001 T02180192

10-Day Weather Forecast

Almanac

Astronomy

Jul. 23, 2016 Rise Set
Actual Time
Civil Twilight
Nautical Twilight
Astronomical Twilight
Moon
Length of Visible Light
Length of Day
Tomorrow will be .
, % of the Moon is Illuminated

Today's Extremes

State Highs State Lows

Community

WunderPhotos

Upload Photos

1,926,793 photos uploaded!

WunderBlog® & News

Nearby

Air Quality

  Air Quality AQ Index Pollutant
Not available.

Snow Depth

Station Depth Elevation

Earthquake Activity

City Distance Mag. Time & Date
Minimum magnitude displayed is 2.5.

Coastal Water Temperatures

Place Temperature

Stations

Nearby Weather Stations

Station Location Temp. Windchill Dew Point Humidity Wind Precip. Elev Updated Type
                   

Watches & Warnings

Excessive Heat Warning
Issued: 3:29 AM CDT Jul. 23, 2016 – National Weather Service

... Excessive heat warning remains in effect until 7 PM CDT this
evening...

* hazard... dangerous heat.

* Heat index... the heat index will peak between 100 and 107
degrees today.

* Impacts... the prolonged heat and humidity will combine to
create a dangerous situation which could lead to heat related
illnesses.

Precautionary/preparedness actions...

An excessive heat warning means that a prolonged period of
dangerously hot temperatures will occur. The combination of hot
temperatures and high humidity will combine to create a dangerous
situation in which heat illnesses are likely. Drink plenty of
fluids... stay in an air-conditioned room... stay out of the sun...
and check up on relatives and neighbors.